Time;durP1;ratioP1;P1;durP2;ratioP2;P2;SDS_P1;SDS_P2;PMS_P1;PMS_P2;Temp;Humidity;BMP_temperature;BMP_pressure;BME280_temperature;BME280_humidity;BME280_pressure;Samples;Min_cycle;Max_cycle;Signal;HPM_P1;HPM_P2
2024/01/03 00:00:58;;;;;;;1.23;0.60;;;;;;;8.36;100.00;100457.59;4994192;28;20054;-83
2024/01/03 00:03:37;;;;;;;1.50;0.60;;;;;;;8.40;100.00;100454.34;4993736;28;20057;-83
2024/01/03 00:06:07;;;;;;;0.73;0.45;;;;;;;8.45;100.00;100462.22;4992534;28;20050;-83
2024/01/03 00:08:38;;;;;;;1.70;0.75;;;;;;;8.45;100.00;100441.59;4994688;28;20134;-81
2024/01/03 00:11:07;;;;;;;1.33;0.63;;;;;;;8.44;100.00;100451.03;4995065;28;20053;-83
2024/01/03 00:14:19;;;;;;;4.57;0.68;;;;;;;8.42;100.00;100456.97;4996529;28;20050;-83
2024/01/03 00:16:48;;;;;;;0.95;0.57;;;;;;;8.36;100.00;100440.47;4992705;28;20054;-84
2024/01/03 00:19:21;;;;;;;1.23;0.80;;;;;;;8.26;100.00;100445.25;4990738;28;20051;-83
2024/01/03 00:21:56;;;;;;;;;;;;;;;8.20;100.00;100443.34;4993997;28;20054;-83
2024/01/03 00:24:25;;;;;;;2.50;1.10;;;;;;;8.18;100.00;100456.16;4986908;28;19936;-82
2024/01/03 00:26:55;;;;;;;2.85;1.40;;;;;;;8.18;100.00;100440.72;4991731;28;20058;-82
2024/01/03 00:29:53;;;;;;;2.13;1.05;;;;;;;8.21;100.00;100446.78;4993079;28;20059;-83
2024/01/03 00:32:28;;;;;;;2.05;1.00;;;;;;;8.19;100.00;100455.34;4988158;28;20066;-82
2024/01/03 00:35:00;;;;;;;1.30;0.57;;;;;;;8.13;100.00;100455.16;4994378;28;20532;-83
2024/01/03 00:37:29;;;;;;;1.63;0.88;;;;;;;8.14;100.00;100456.88;4989991;28;20050;-86
2024/01/03 00:40:02;;;;;;;3.60;1.20;;;;;;;8.17;100.00;100458.69;4988570;28;20472;-83
2024/01/03 00:42:34;;;;;;;1.23;0.80;;;;;;;8.15;100.00;100445.78;4985314;28;20050;-84
2024/01/03 00:45:04;;;;;;;0.98;0.75;;;;;;;8.16;100.00;100444.94;4986148;28;20050;-82
2024/01/03 00:47:33;;;;;;;1.27;0.68;;;;;;;8.11;100.00;100445.63;4989725;28;20093;-82
2024/01/03 00:50:02;;;;;;;0.73;0.40;;;;;;;8.08;100.00;100451.50;4987539;28;20054;-81
2024/01/03 00:52:33;;;;;;;0.65;0.38;;;;;;;8.01;100.00;100444.41;4985440;28;20054;-81
2024/01/03 00:55:02;;;;;;;1.30;0.60;;;;;;;8.01;100.00;100467.59;4993098;28;20459;-82
2024/01/03 00:57:30;;;;;;;1.95;0.65;;;;;;;8.01;100.00;100477.03;4994699;28;20050;-83
2024/01/03 00:59:59;;;;;;;1.10;0.40;;;;;;;8.03;100.00;100472.81;4994804;28;20050;-82
2024/01/03 01:02:34;;;;;;;0.20;0.13;;;;;;;8.05;100.00;100474.59;4992427;28;20558;-82
2024/01/03 01:05:03;;;;;;;0.40;0.30;;;;;;;7.98;100.00;100482.94;4990118;28;20050;-84
2024/01/03 01:07:32;;;;;;;0.50;0.40;;;;;;;7.95;100.00;100500.88;4992279;28;20081;-85
2024/01/03 01:10:01;;;;;;;1.15;0.50;;;;;;;7.86;100.00;100526.31;4992100;28;20050;-84
2024/01/03 01:12:33;;;;;;;1.67;0.45;;;;;;;7.83;100.00;100516.75;4994613;28;20117;-85
2024/01/03 01:15:01;;;;;;;0.90;0.70;;;;;;;7.78;100.00;100512.25;4994857;28;20054;-82
2024/01/03 01:17:32;;;;;;;1.63;0.50;;;;;;;7.76;100.00;100510.53;4990318;28;20141;-84
2024/01/03 01:20:01;;;;;;;1.48;0.57;;;;;;;7.81;100.00;100525.25;4987613;28;20038;-84
2024/01/03 01:22:29;;;;;;;0.68;0.30;;;;;;;7.81;100.00;100508.09;4996103;28;20063;-85
2024/01/03 01:25:00;;;;;;;0.52;0.30;;;;;;;7.79;100.00;100477.94;4993268;28;20492;-84
2024/01/03 01:27:29;;;;;;;0.47;0.38;;;;;;;7.78;100.00;100471.06;4990024;28;20478;-83
2024/01/03 01:29:57;;;;;;;0.65;0.30;;;;;;;7.75;100.00;100474.41;4990937;28;20086;-84
2024/01/03 01:32:26;;;;;;;0.43;0.30;;;;;;;7.76;100.00;100484.75;4992923;28;20050;-85
2024/01/03 01:34:59;;;;;;;0.30;0.30;;;;;;;7.79;100.00;100475.38;4991815;28;20057;-83
2024/01/03 01:37:28;;;;;;;1.38;0.20;;;;;;;7.76;100.00;100474.47;4992022;28;20070;-84
2024/01/03 01:39:57;;;;;;;0.30;0.20;;;;;;;7.76;100.00;100469.31;4997058;28;20058;-84
2024/01/03 01:42:28;;;;;;;0.80;0.40;;;;;;;7.75;100.00;100476.97;4989886;28;20050;-84
2024/01/03 01:45:07;;;;;;;2.13;1.02;;;;;;;7.73;100.00;100464.03;4997237;28;20101;-84
2024/01/03 01:47:36;;;;;;;0.40;0.30;;;;;;;7.78;100.00;100465.91;5000336;28;20081;-85
2024/01/03 01:50:08;;;;;;;0.43;0.43;;;;;;;7.68;100.00;100460.41;4992168;28;20549;-85
2024/01/03 01:52:52;;;;;;;0.32;0.32;;;;;;;7.57;100.00;100479.75;4992096;28;20054;-86
2024/01/03 01:55:22;;;;;;;0.38;0.20;;;;;;;7.41;100.00;100474.84;4984989;28;20501;-83
2024/01/03 01:57:53;;;;;;;0.65;0.30;;;;;;;7.21;100.00;100462.09;4990699;28;20046;-83
2024/01/03 02:00:22;;;;;;;0.15;0.15;;;;;;;7.06;100.00;100464.09;4990821;28;20054;-84
2024/01/03 02:02:51;;;;;;;0.30;0.30;;;;;;;7.02;100.00;100464.78;4985584;28;20492;-83
2024/01/03 02:05:22;;;;;;;0.30;0.30;;;;;;;7.00;100.00;100468.97;4990768;28;20050;-83
2024/01/03 02:07:51;;;;;;;0.30;0.30;;;;;;;7.02;100.00;100475.06;4991640;28;20097;-83
2024/01/03 02:10:30;;;;;;;;;;;;;;;;;;;;;
2024/01/03 02:12:59;;;;;;;1.05;0.30;;;;;;;6.95;100.00;100483.38;4985020;28;20042;-88
2024/01/03 02:15:28;;;;;;;0.45;0.43;;;;;;;6.93;100.00;100497.03;4984831;28;20084;-85
2024/01/03 02:17:58;;;;;;;0.35;0.35;;;;;;;6.92;100.00;100503.00;4985781;28;20541;-84
2024/01/03 02:20:33;;;;;;;0.35;0.32;;;;;;;6.93;100.00;100503.88;4985432;28;20055;-84
2024/01/03 02:23:04;;;;;;;0.40;0.30;;;;;;;6.93;100.00;100507.31;4991862;28;20054;-84
2024/01/03 02:25:33;;;;;;;1.23;0.68;;;;;;;6.98;100.00;100519.50;4990443;28;20050;-83
2024/01/03 02:28:07;;;;;;;0.60;0.50;;;;;;;7.01;100.00;100527.31;4990231;28;20053;-84
2024/01/03 02:30:36;;;;;;;1.38;0.40;;;;;;;7.06;100.00;100538.69;4994941;28;20104;-83
2024/01/03 02:33:05;;;;;;;1.33;0.50;;;;;;;7.13;100.00;100535.53;4985027;28;20050;-83
2024/01/03 02:35:34;;;;;;;0.45;0.30;;;;;;;7.15;100.00;100526.19;4973613;28;20057;-83
2024/01/03 02:38:07;;;;;;;0.45;0.40;;;;;;;7.20;100.00;100524.66;4986078;28;20086;-82
2024/01/03 02:40:39;;;;;;;0.38;0.32;;;;;;;7.23;100.00;100532.50;4977486;28;20057;-84
2024/01/03 02:43:08;;;;;;;0.75;0.32;;;;;;;7.21;100.00;100529.00;4983597;28;20519;-85
2024/01/03 02:45:37;;;;;;;0.52;0.50;;;;;;;7.19;100.00;100533.19;4983867;28;20088;-83
2024/01/03 02:48:16;;;;;;;;;;;;;;;;;;;;;
2024/01/03 02:50:48;;;;;;;0.38;0.30;;;;;;;7.13;100.00;100520.09;4978959;28;20534;-85
2024/01/03 02:53:18;;;;;;;2.25;0.30;;;;;;;7.13;100.00;100514.97;4978141;28;20429;-84
2024/01/03 02:55:59;;;;;;;0.82;0.52;;;;;;;7.15;100.00;100523.63;4986382;28;20057;-85
2024/01/03 02:58:28;;;;;;;0.68;0.40;;;;;;;7.09;100.00;100520.78;4981746;28;20567;-84
2024/01/03 03:00:56;;;;;;;0.77;0.70;;;;;;;7.09;100.00;100529.38;4976878;28;20054;-84
2024/01/03 03:03:25;;;;;;;1.23;0.63;;;;;;;7.12;100.00;100526.06;4989519;28;20047;-84
2024/01/03 03:05:55;;;;;;;1.00;0.40;;;;;;;7.18;100.00;100533.16;4988124;28;20051;-85
2024/01/03 03:08:26;;;;;;;0.90;0.40;;;;;;;7.20;100.00;100531.53;4982634;28;20142;-87
2024/01/03 03:10:55;;;;;;;1.27;0.50;;;;;;;7.26;100.00;100532.66;4978733;28;20078;-85
2024/01/03 03:13:24;;;;;;;0.82;0.50;;;;;;;7.29;100.00;100532.75;4982763;28;20074;-85
2024/01/03 03:16:02;;;;;;;1.35;0.60;;;;;;;7.29;100.00;100535.31;4987976;28;20085;-87
2024/01/03 03:18:32;;;;;;;0.50;0.30;;;;;;;7.30;100.00;100539.63;4987721;28;20062;-85
2024/01/03 03:21:01;;;;;;;1.50;0.50;;;;;;;7.31;100.00;100536.25;4983628;28;20050;-85
2024/01/03 03:23:35;;;;;;;0.90;0.40;;;;;;;7.36;100.00;100548.44;4994022;28;20160;-85
2024/01/03 03:26:05;;;;;;;1.23;0.65;;;;;;;7.39;100.00;100566.56;4987619;28;20254;-84
2024/01/03 03:28:33;;;;;;;0.30;0.30;;;;;;;7.38;100.00;100551.97;4992374;28;20051;-84
2024/01/03 03:31:03;;;;;;;1.48;0.75;;;;;;;7.42;100.00;100562.44;4990761;28;20054;-87
2024/01/03 03:33:34;;;;;;;1.38;0.60;;;;;;;7.43;100.00;100556.44;4980956;28;20133;-83
2024/01/03 03:36:03;;;;;;;0.63;0.60;;;;;;;7.47;100.00;100557.47;4979398;28;20050;-87
2024/01/03 03:38:37;;;;;;;2.25;0.90;;;;;;;7.52;100.00;100568.81;4983638;28;20046;-86
2024/01/03 03:41:12;;;;;;;2.75;0.98;;;;;;;7.54;100.00;100565.47;4991212;28;20061;-85
2024/01/03 03:43:44;;;;;;;2.13;1.08;;;;;;;7.56;100.00;100568.13;4985402;28;20058;-85
2024/01/03 03:46:13;;;;;;;2.38;0.82;;;;;;;7.56;100.00;100575.84;4988618;28;20078;-84
2024/01/03 03:48:42;;;;;;;2.03;0.88;;;;;;;7.56;100.00;100568.13;4984936;28;20054;-85
2024/01/03 03:51:11;;;;;;;1.90;1.13;;;;;;;7.53;100.00;100555.09;4983103;28;20072;-87
2024/01/03 03:53:42;;;;;;;1.65;1.15;;;;;;;7.55;100.00;100556.03;4981560;28;20044;-86
2024/01/03 03:56:11;;;;;;;0.70;0.70;;;;;;;7.54;100.00;100550.03;4980217;28;20085;-87
2024/01/03 03:58:41;;;;;;;2.83;1.15;;;;;;;7.49;100.00;100555.78;4978956;28;20055;-88
2024/01/03 04:01:10;;;;;;;2.08;1.08;;;;;;;7.43;100.00;100556.44;4983267;28;20061;-88
2024/01/03 04:03:40;;;;;;;2.17;1.17;;;;;;;7.42;100.00;100557.28;4985589;28;20078;-88
2024/01/03 04:06:13;;;;;;;1.77;1.02;;;;;;;7.41;100.00;100552.06;4986493;28;20050;-84
2024/01/03 04:08:48;;;;;;;1.67;0.95;;;;;;;7.44;100.00;100557.31;4989325;28;20070;-85
2024/01/03 04:11:17;;;;;;;3.05;1.08;;;;;;;7.47;100.00;100562.63;4985068;28;20544;-83
2024/01/03 04:13:54;;;;;;;2.85;0.98;;;;;;;7.49;100.00;100566.09;4990136;28;20057;-86
2024/01/03 04:16:23;;;;;;;1.20;0.70;;;;;;;7.48;100.00;100569.50;4987148;28;20059;-85
2024/01/03 04:18:52;;;;;;;3.45;1.20;;;;;;;7.53;100.00;100597.16;4990615;28;20051;-86
2024/01/03 04:21:21;;;;;;;1.08;0.80;;;;;;;7.50;100.00;100611.63;4989707;28;20084;-86
2024/01/03 04:23:54;;;;;;;1.38;0.90;;;;;;;7.51;100.00;100590.22;4982463;28;20047;-88
2024/01/03 04:26:24;;;;;;;1.45;1.02;;;;;;;7.48;100.00;100585.81;4989939;28;20153;-86
2024/01/03 04:31:33;;;;;;;3.70;1.05;;;;;;;7.57;100.00;100563.84;6117141;23;20085;-86
2024/01/03 04:34:03;;;;;;;1.20;0.80;;;;;;;7.59;100.00;100562.19;4927334;29;20565;-88
2024/01/03 04:41:46;;;;;;;3.33;1.27;;;;;;;7.62;100.00;100563.19;5211287;23;20637;-88
2024/01/03 04:44:14;;;;;;;;;;;;;;;7.59;100.00;100570.78;4926554;29;20466;-88
2024/01/03 04:46:43;;;;;;;2.60;1.35;;;;;;;7.57;100.00;100569.84;4923119;29;19964;-88
2024/01/03 04:49:21;;;;;;;3.15;0.98;;;;;;;7.57;100.00;100585.31;4919095;29;20048;-86
2024/01/03 04:51:53;;;;;;;1.55;1.10;;;;;;;7.55;100.00;100589.50;4923279;29;20063;-88
2024/01/03 04:54:22;;;;;;;2.00;1.23;;;;;;;7.51;100.00;100590.22;4916770;29;20104;-87
2024/01/03 04:57:03;;;;;;;2.70;1.55;;;;;;;7.52;100.00;100582.56;4918546;29;20486;-86
2024/01/03 04:59:31;;;;;;;2.45;1.05;;;;;;;7.54;100.00;100586.06;4922010;29;20067;-86
2024/01/03 05:02:01;;;;;;;2.13;0.93;;;;;;;7.54;100.00;100591.22;4914852;29;20060;-87
2024/01/03 05:04:48;;;;;;;1.50;0.90;;;;;;;7.53;100.00;100593.72;4921419;29;20142;-87
2024/01/03 05:07:20;;;;;;;2.08;0.90;;;;;;;7.53;100.00;100588.56;4917174;29;20060;-89
2024/01/03 05:12:33;;;;;;;1.27;1.17;;;;;;;7.52;100.00;100595.44;4924876;29;20478;-87
2024/01/03 05:15:02;;;;;;;2.25;1.08;;;;;;;7.45;100.00;100582.25;4918650;29;20115;-89
2024/01/03 05:17:34;;;;;;;2.25;0.98;;;;;;;7.44;100.00;100583.06;5496321;23;20100;-86
2024/01/03 05:20:04;;;;;;;2.37;0.90;;;;;;;7.41;100.00;100591.56;4988383;28;20054;-87
2024/01/03 05:22:32;;;;;;;6.53;1.27;;;;;;;7.43;100.00;100602.78;4990481;28;20808;-87
2024/01/03 05:25:03;;;;;;;2.70;1.20;;;;;;;7.42;100.00;100605.28;4992852;28;20504;-87
2024/01/03 05:27:39;;;;;;;1.45;1.05;;;;;;;7.40;100.00;100588.91;4993309;28;20064;-87
2024/01/03 05:30:09;;;;;;;1.60;0.95;;;;;;;7.33;100.00;100591.25;4993634;28;20134;-85
2024/01/03 05:32:38;;;;;;;3.28;0.98;;;;;;;7.30;100.00;100585.09;4987848;28;20508;-86
2024/01/03 05:35:08;;;;;;;3.65;1.08;;;;;;;7.30;100.00;100603.97;4989544;28;20051;-87
2024/01/03 05:37:40;;;;;;;1.73;1.02;;;;;;;7.33;100.00;100598.97;4990193;28;20082;-87
2024/01/03 05:40:10;;;;;;;1.23;1.13;;;;;;;7.30;100.00;100595.38;4978654;28;20086;-87
2024/01/03 05:42:41;;;;;;;2.53;0.82;;;;;;;7.24;100.00;100593.47;4982398;28;20368;-85
2024/01/03 05:45:11;;;;;;;2.22;1.13;;;;;;;7.17;100.00;100596.63;4987911;28;20047;-85
2024/01/03 05:47:45;;;;;;;1.30;1.05;;;;;;;7.07;100.00;100591.88;4981326;28;20066;-86
2024/01/03 05:50:15;;;;;;;1.63;0.80;;;;;;;7.05;100.00;100593.53;4989834;28;20066;-86
2024/01/03 05:52:44;;;;;;;2.38;1.13;;;;;;;7.04;100.00;100589.19;4985070;28;20137;-87
2024/01/03 05:55:13;;;;;;;2.42;1.25;;;;;;;7.04;100.00;100591.78;4982619;28;20046;-88
2024/01/03 05:57:51;;;;;;;2.33;1.25;;;;;;;6.98;100.00;100586.38;4987714;28;20062;-87
2024/01/03 06:00:21;;;;;;;4.53;1.40;;;;;;;6.90;100.00;100592.06;4982508;28;20065;-84
2024/01/03 06:02:50;;;;;;;2.53;1.13;;;;;;;6.85;100.00;100602.97;4987166;28;20134;-87
2024/01/03 06:05:23;;;;;;;2.53;1.13;;;;;;;6.81;100.00;100609.69;4999635;28;20089;-86
2024/01/03 06:07:52;;;;;;;3.08;1.27;;;;;;;6.78;100.00;100604.44;5001886;28;20089;-86
2024/01/03 06:10:20;;;;;;;2.97;1.55;;;;;;;6.71;100.00;100607.53;5002119;28;20046;-86
2024/01/03 06:12:51;;;;;;;2.30;1.10;;;;;;;6.63;100.00;100603.78;5008112;28;20069;-85
2024/01/03 06:15:19;;;;;;;1.15;1.02;;;;;;;6.53;100.00;100604.19;5011564;28;20062;-85
2024/01/03 06:17:51;;;;;;;2.53;1.20;;;;;;;6.50;100.00;100602.34;5002632;28;20046;-85
2024/01/03 06:20:20;;;;;;;6.75;1.70;;;;;;;6.56;100.00;100604.31;5007618;28;20050;-87
2024/01/03 06:22:48;;;;;;;1.40;0.80;;;;;;;6.60;100.00;100614.81;4989885;28;20058;-83
2024/01/03 06:25:17;;;;;;;2.20;0.80;;;;;;;6.63;100.00;100626.91;4983899;28;20046;-85
2024/01/03 06:27:47;;;;;;;0.73;0.55;;;;;;;6.64;100.00;100620.94;4991317;28;20058;-86
2024/01/03 06:30:18;;;;;;;2.67;0.80;;;;;;;6.67;100.00;100619.41;4989091;28;20050;-85
2024/01/03 06:32:47;;;;;;;0.65;0.65;;;;;;;6.69;100.00;100619.47;4986675;28;20066;-85
2024/01/03 06:35:15;;;;;;;1.35;0.75;;;;;;;6.71;100.00;100629.00;4999427;28;20050;-86
2024/01/03 06:37:44;;;;;;;0.60;0.50;;;;;;;6.71;100.00;100633.25;5002511;28;20065;-86
2024/01/03 06:40:20;;;;;;;1.35;0.60;;;;;;;6.71;100.00;100626.44;4995304;28;20130;-85
2024/01/03 06:42:49;;;;;;;2.05;0.70;;;;;;;6.71;100.00;100629.00;4995586;28;20266;-86
2024/01/03 06:45:20;;;;;;;0.65;0.45;;;;;;;6.77;100.00;100630.06;4992098;28;20042;-86
2024/01/03 06:47:52;;;;;;;2.30;0.70;;;;;;;6.78;100.00;100621.53;4980443;28;20047;-86
2024/01/03 06:50:23;;;;;;;1.40;0.93;;;;;;;6.73;100.00;100631.63;4988328;28;20078;-86
2024/01/03 06:52:51;;;;;;;1.48;0.70;;;;;;;6.68;100.00;100630.56;4980712;28;20049;-86
2024/01/03 06:55:20;;;;;;;2.95;1.45;;;;;;;6.69;100.00;100632.34;4985594;28;20054;-86
2024/01/03 06:57:50;;;;;;;1.83;1.10;;;;;;;6.68;100.00;100622.84;4979879;28;20146;-85
2024/01/03 07:00:24;;;;;;;1.63;0.82;;;;;;;6.73;100.00;100634.19;4990651;28;20054;-87
2024/01/03 07:02:52;;;;;;;1.33;0.63;;;;;;;6.72;100.00;100622.16;4977991;28;20046;-87
2024/01/03 07:05:21;;;;;;;1.42;0.60;;;;;;;6.71;100.00;100615.25;4983101;28;20058;-86
2024/01/03 07:07:50;;;;;;;2.03;0.65;;;;;;;6.74;100.00;100617.09;4987812;28;20046;-85
2024/01/03 07:10:19;;;;;;;0.55;0.45;;;;;;;6.76;100.00;100626.63;4990727;28;20046;-86
2024/01/03 07:12:48;;;;;;;1.77;0.88;;;;;;;6.82;100.00;100634.59;4986448;28;20046;-85
2024/01/03 07:15:17;;;;;;;0.95;0.70;;;;;;;6.81;100.00;100642.25;4990191;28;20100;-85
2024/01/03 07:17:47;;;;;;;2.85;0.90;;;;;;;6.80;100.00;100637.91;4990203;28;20116;-85
2024/01/03 07:20:16;;;;;;;1.42;0.80;;;;;;;6.72;100.00;100630.75;4991051;28;20046;-86
2024/01/03 07:22:47;;;;;;;2.63;0.98;;;;;;;6.65;100.00;100638.16;4995857;28;20186;-86
2024/01/03 07:25:16;;;;;;;10.60;1.63;;;;;;;6.55;100.00;100643.69;4989963;28;20051;-85
2024/01/03 07:27:45;;;;;;;4.93;1.42;;;;;;;6.49;100.00;100646.88;4992777;28;20059;-86
2024/01/03 07:30:14;;;;;;;2.55;0.98;;;;;;;6.44;100.00;100654.38;4993032;28;20058;-85
2024/01/03 07:32:44;;;;;;;3.10;1.25;;;;;;;6.44;100.00;100643.22;4990634;28;20062;-85
2024/01/03 07:35:16;;;;;;;2.83;1.45;;;;;;;6.48;100.00;100647.66;4991494;28;20066;-85
2024/01/03 07:37:45;;;;;;;1.43;1.10;;;;;;;6.48;100.00;100647.66;4990130;28;20396;-85
2024/01/03 07:40:14;;;;;;;2.60;1.27;;;;;;;6.40;100.00;100651.59;4984468;28;20281;-86
2024/01/03 07:42:43;;;;;;;1.38;1.10;;;;;;;6.31;100.00;100636.66;4985168;28;20046;-86
2024/01/03 07:45:14;;;;;;;1.60;1.08;;;;;;;6.23;100.00;100641.47;4983511;28;20047;-87
2024/01/03 07:47:43;;;;;;;2.60;1.25;;;;;;;6.19;100.00;100649.84;4990288;28;20050;-86
2024/01/03 07:50:13;;;;;;;0.63;0.52;;;;;;;6.20;100.00;100643.88;4980801;28;20046;-85
2024/01/03 07:52:46;;;;;;;0.55;0.52;;;;;;;6.25;100.00;100641.50;4980337;28;20051;-85
2024/01/03 07:55:19;;;;;;;2.75;1.50;;;;;;;6.25;100.00;100644.97;4983500;28;20137;-86
2024/01/03 07:57:47;;;;;;;2.58;0.85;;;;;;;6.19;100.00;100654.97;4986161;28;20479;-85
2024/01/03 08:00:17;;;;;;;1.67;0.80;;;;;;;6.23;100.00;100659.44;4984874;28;20112;-85
2024/01/03 08:02:46;;;;;;;2.10;0.90;;;;;;;6.25;100.00;100651.78;4985498;28;20141;-85
2024/01/03 08:05:22;;;;;;;2.28;0.50;;;;;;;6.23;100.00;100661.13;4989002;28;20137;-85
2024/01/03 08:07:52;;;;;;;1.10;0.80;;;;;;;6.24;100.00;100660.31;4985837;28;20054;-85
2024/01/03 08:10:21;;;;;;;0.98;0.70;;;;;;;6.14;100.00;100660.69;4984226;28;20133;-87
2024/01/03 08:12:50;;;;;;;2.08;0.88;;;;;;;6.11;100.00;100655.44;4987991;28;20046;-85
2024/01/03 08:15:23;;;;;;;1.55;0.82;;;;;;;6.07;100.00;100660.44;4982410;28;20053;-86
2024/01/03 08:17:52;;;;;;;1.42;0.80;;;;;;;6.11;100.00;100668.28;4988126;28;20061;-86
2024/01/03 08:20:21;;;;;;;1.58;1.15;;;;;;;6.03;100.00;100666.22;4988962;28;20093;-85
2024/01/03 08:22:51;;;;;;;1.48;0.75;;;;;;;6.01;100.00;100672.97;4989689;28;20042;-86
2024/01/03 08:25:26;;;;;;;1.40;0.80;;;;;;;5.95;100.00;100671.81;4994048;28;20469;-85
2024/01/03 08:27:55;;;;;;;2.33;0.70;;;;;;;5.97;100.00;100665.94;4993398;28;20051;-87
2024/01/03 08:30:24;;;;;;;2.53;1.00;;;;;;;5.98;100.00;100672.84;4995002;28;20086;-86
2024/01/03 08:32:52;;;;;;;2.15;0.70;;;;;;;5.95;100.00;100675.25;4989645;28;20053;-85
2024/01/03 08:35:28;;;;;;;1.80;1.00;;;;;;;5.96;100.00;100668.47;4991814;28;20061;-85
2024/01/03 08:37:59;;;;;;;1.77;0.85;;;;;;;5.87;100.00;100664.59;4989757;28;20057;-85
2024/01/03 08:40:28;;;;;;;1.23;0.70;;;;;;;5.91;100.00;100681.06;4986698;28;20142;-86
2024/01/03 08:42:56;;;;;;;1.05;0.88;;;;;;;5.88;100.00;100674.06;4982429;28;20139;-85
2024/01/03 08:45:27;;;;;;;0.98;0.77;;;;;;;5.79;100.00;100655.66;4987627;28;20042;-86
2024/01/03 08:47:56;;;;;;;1.30;0.90;;;;;;;5.78;100.00;100673.56;4994187;28;20101;-85
2024/01/03 08:50:25;;;;;;;1.90;1.05;;;;;;;5.79;100.00;100665.03;4986791;28;20065;-86
2024/01/03 08:52:53;;;;;;;1.02;0.50;;;;;;;5.78;100.00;100658.16;4993409;28;20049;-86
2024/01/03 08:55:24;;;;;;;1.58;0.93;;;;;;;5.78;100.00;100659.03;4987739;28;20058;-86
2024/01/03 08:57:56;;;;;;;1.50;1.00;;;;;;;5.83;100.00;100659.25;4994341;28;20046;-86
2024/01/03 09:00:25;;;;;;;2.30;0.63;;;;;;;5.81;100.00;100663.44;4987703;28;20492;-85
2024/01/03 09:02:57;;;;;;;1.38;0.85;;;;;;;5.73;100.00;100637.41;4994320;28;20150;-87
2024/01/03 09:05:33;;;;;;;1.02;0.80;;;;;;;5.80;100.00;100638.56;4993098;28;20149;-86
2024/01/03 09:08:01;;;;;;;1.95;1.00;;;;;;;5.82;100.00;100635.28;4997103;28;20488;-86
2024/01/03 09:10:32;;;;;;;1.50;0.85;;;;;;;5.77;100.00;100635.84;5001548;28;20078;-85
2024/01/03 09:13:00;;;;;;;0.80;0.50;;;;;;;5.74;100.00;100636.59;4991134;28;20053;-85
2024/01/03 09:15:32;;;;;;;2.85;0.82;;;;;;;5.71;100.00;100636.47;4989727;28;20598;-85
2024/01/03 09:18:00;;;;;;;3.33;0.82;;;;;;;5.72;100.00;100648.47;4991778;28;20520;-86
2024/01/03 09:20:29;;;;;;;2.13;1.13;;;;;;;5.69;100.00;100637.19;4991654;28;20051;-86
2024/01/03 09:23:01;;;;;;;0.82;0.82;;;;;;;5.70;100.00;100644.94;4995201;28;20101;-86
2024/01/03 09:25:33;;;;;;;2.63;1.02;;;;;;;5.67;100.00;100645.69;4992184;28;20058;-86
2024/01/03 09:28:02;;;;;;;1.27;1.05;;;;;;;5.69;100.00;100635.50;4991663;28;20501;-86
2024/01/03 09:30:30;;;;;;;1.67;0.90;;;;;;;5.67;100.00;100634.53;4988039;28;20054;-86
2024/01/03 09:32:59;;;;;;;1.20;0.85;;;;;;;5.71;100.00;100648.41;4987463;28;20417;-86
2024/01/03 09:35:28;;;;;;;0.85;0.80;;;;;;;5.68;100.00;100651.72;4987519;28;20074;-86
2024/01/03 09:37:59;;;;;;;3.05;1.02;;;;;;;5.71;100.00;100648.41;4985309;28;20541;-87
2024/01/03 09:40:28;;;;;;;2.22;1.08;;;;;;;5.72;100.00;100648.47;4988452;28;20566;-87
2024/01/03 09:42:58;;;;;;;3.05;0.90;;;;;;;5.73;100.00;100631.41;4985085;28;20051;-87
2024/01/03 09:45:27;;;;;;;2.13;1.10;;;;;;;5.71;100.00;100630.44;4990654;28;20595;-85
2024/01/03 09:47:58;;;;;;;1.95;1.00;;;;;;;5.67;100.00;100637.97;4981857;28;20082;-85
2024/01/03 09:50:28;;;;;;;0.40;0.30;;;;;;;5.72;100.00;100629.63;4985353;28;20141;-87
2024/01/03 09:52:57;;;;;;;1.60;0.80;;;;;;;5.70;100.00;100628.66;4982404;28;20259;-86
2024/01/03 09:55:29;;;;;;;1.95;1.27;;;;;;;5.64;100.00;100632.72;4991117;28;20052;-86
2024/01/03 09:58:06;;;;;;;2.60;1.20;;;;;;;5.54;100.00;100627.94;4988800;28;20058;-85
2024/01/03 10:00:35;;;;;;;1.35;0.60;;;;;;;5.47;100.00;100625.88;4987345;28;20054;-85
2024/01/03 10:03:05;;;;;;;0.75;0.35;;;;;;;5.46;100.00;100631.84;4987712;28;20061;-86
2024/01/03 10:05:34;;;;;;;2.50;1.08;;;;;;;5.50;100.00;100623.50;4987127;28;20046;-85
2024/01/03 10:08:16;;;;;;;2.85;1.02;;;;;;;5.52;100.00;100633.81;4986788;28;20053;-85
2024/01/03 10:10:46;;;;;;;1.25;0.70;;;;;;;5.49;100.00;100637.13;4988377;28;20054;-85
2024/01/03 10:13:21;;;;;;;2.25;1.10;;;;;;;5.48;100.00;100637.06;4989500;28;20054;-85
2024/01/03 10:15:50;;;;;;;1.80;1.00;;;;;;;5.48;100.00;100631.94;4980221;28;20138;-85
2024/01/03 10:18:20;;;;;;;2.65;1.10;;;;;;;5.48;100.00;100635.38;4980911;28;20138;-85
2024/01/03 10:20:49;;;;;;;3.28;1.15;;;;;;;5.42;100.00;100638.50;4987114;28;20089;-86
2024/01/03 10:23:29;;;;;;;;;;;;;;;;;;;;;
2024/01/03 10:25:58;;;;;;;2.97;0.82;;;;;;;5.40;100.00;100639.25;4984138;28;20076;-84
2024/01/03 10:28:29;;;;;;;4.57;1.05;;;;;;;5.45;100.00;100637.75;4998930;28;20076;-85
2024/01/03 10:30:59;;;;;;;2.42;1.17;;;;;;;5.46;100.00;100639.53;4989414;28;20050;-85
2024/01/03 10:33:30;;;;;;;0.80;0.70;;;;;;;5.48;100.00;100642.19;4989661;28;20088;-86
2024/01/03 10:35:59;;;;;;;2.25;0.90;;;;;;;5.48;100.00;100649.88;4992881;28;20051;-86
2024/01/03 10:38:30;;;;;;;1.17;0.73;;;;;;;5.54;100.00;100658.72;4988875;28;20047;-85
2024/01/03 10:41:00;;;;;;;0.70;0.50;;;;;;;5.53;100.00;100649.28;4987330;28;20058;-85
2024/01/03 10:43:35;;;;;;;1.10;0.22;;;;;;;5.55;100.00;100639.09;4992303;28;20046;-85
2024/01/03 10:46:07;;;;;;;0.28;0.28;;;;;;;5.61;100.00;100647.06;4984444;28;20959;-86
2024/01/03 10:48:37;;;;;;;0.30;0.30;;;;;;;5.62;100.00;100636.03;4992184;28;20464;-87
2024/01/03 10:51:13;;;;;;;0.20;0.20;;;;;;;5.69;100.00;100652.59;4991249;28;20069;-87
2024/01/03 10:53:45;;;;;;;0.22;0.22;;;;;;;5.61;100.00;100650.56;4992849;28;20108;-86
2024/01/03 10:56:17;;;;;;;1.02;0.35;;;;;;;5.59;100.00;100652.16;4992362;28;20085;-85
2024/01/03 10:58:56;;;;;;;0.70;0.28;;;;;;;5.55;100.00;100646.81;4986130;28;20058;-86
2024/01/03 11:01:30;;;;;;;0.35;0.32;;;;;;;5.42;100.00;100658.16;4992003;28;20126;-86
2024/01/03 11:04:13;;;;;;;0.60;0.30;;;;;;;5.41;100.00;100652.16;4990555;28;20571;-86
2024/01/03 11:06:53;;;;;;;0.32;0.20;;;;;;;5.41;100.00;100661.53;4991191;28;20047;-86
2024/01/03 11:09:25;;;;;;;0.75;0.52;;;;;;;5.40;100.00;100655.50;4986398;28;20054;-86
2024/01/03 11:12:08;;;;;;;0.38;0.30;;;;;;;5.43;100.00;100657.38;4989612;28;20069;-86
2024/01/03 11:14:43;;;;;;;0.20;0.20;;;;;;;5.46;100.00;100657.50;4990529;28;20050;-87
2024/01/03 11:17:14;;;;;;;0.57;0.40;;;;;;;5.52;100.00;100655.25;4990929;28;20054;-86
2024/01/03 11:19:43;;;;;;;0.63;0.30;;;;;;;5.60;100.00;100648.78;4947062;28;20106;-86
2024/01/03 11:22:12;;;;;;;0.20;0.20;;;;;;;5.67;100.00;100658.53;4948814;28;20047;-85
2024/01/03 11:24:47;;;;;;;0.45;0.30;;;;;;;5.74;100.00;100657.13;4948792;28;20047;-85
2024/01/03 11:27:26;;;;;;;0.98;0.50;;;;;;;5.73;100.00;100657.06;4950159;28;20509;-85
2024/01/03 11:29:59;;;;;;;1.30;0.50;;;;;;;5.73;100.00;100659.66;4946994;28;20054;-86
2024/01/03 11:32:36;;;;;;;0.60;0.50;;;;;;;5.69;100.00;100650.91;4948522;28;20051;-85
2024/01/03 11:35:08;;;;;;;2.03;1.00;;;;;;;5.74;100.00;100656.25;4952052;28;20058;-85
2024/01/03 11:37:38;;;;;;;1.52;1.05;;;;;;;5.74;100.00;100658.81;4952939;28;20054;-85
2024/01/03 11:40:19;;;;;;;1.50;0.82;;;;;;;5.74;100.00;100656.25;4951991;28;20505;-85
2024/01/03 11:42:48;;;;;;;1.67;0.80;;;;;;;5.75;100.00;100661.47;4948743;28;20066;-85
2024/01/03 11:45:22;;;;;;;2.63;1.13;;;;;;;5.67;100.00;100670.47;4941953;29;20079;-84
2024/01/03 11:47:55;;;;;;;1.65;0.95;;;;;;;5.62;100.00;100667.69;4956150;29;20047;-84
2024/01/03 11:50:31;;;;;;;1.75;0.93;;;;;;;5.55;100.00;100677.59;4957735;28;20205;-84
2024/01/03 11:53:00;;;;;;;3.75;0.95;;;;;;;5.48;100.00;100671.28;4957765;29;20047;-84
2024/01/03 11:55:35;;;;;;;0.93;0.80;;;;;;;5.43;100.00;100665.06;4959179;28;20079;-84
2024/01/03 11:58:05;;;;;;;1.50;0.70;;;;;;;5.40;100.00;100664.91;4955886;28;20043;-85